IE-0012 weather

Ballinvally Farm Airstrip
County Westmeath, Ireland

Public forecast

Using degrees Celsius for public forecast. Weather courtesy of forecast.io.

Closest aviation weather report (METAR) to Ballinvally Farm Airstrip

Report is more than 6 hours old.

Closest report is Waterford Airport, 36.4 nm (67.4 km) SW. Retrieved 2020/07/15 20:30 UTC (9 hours ago):

EIWF 152030Z 34009KT 310V010 9999 BKN026 16/14 Q1020

Closest aviation forecast (TAF) to Ballinvally Farm Airstrip

Closest forecast is Dublin Airport, 51.1 nm (94.6 km) N. Retrieved 2020-07-16 00:10 UTC (5 hours ago):

TAF EIDW 152300Z 1600/1624 27010KT 9999 SCT018 BKN020 TEMPO 1600/1611 BKN012 PROB40 TEMPO 1606/1609 BKN008